sensor_id;sensor_type;location;lat;lon;timestamp;P1;durP1;ratioP1;P2;durP2;ratioP2
22334;SDS011;11335;43.848;25.958;2022-10-30T00:01:49;8.07;;;6.20;;
22334;SDS011;11335;43.848;25.958;2022-10-30T00:04:34;9.48;;;6.15;;
22334;SDS011;11335;43.848;25.958;2022-10-30T00:07:20;10.48;;;6.53;;
22334;SDS011;11335;43.848;25.958;2022-10-30T00:10:06;11.60;;;6.65;;
22334;SDS011;11335;43.848;25.958;2022-10-30T00:12:52;11.10;;;6.50;;
22334;SDS011;11335;43.848;25.958;2022-10-30T00:15:38;12.05;;;7.15;;
22334;SDS011;11335;43.848;25.958;2022-10-30T00:18:24;9.23;;;6.65;;
22334;SDS011;11335;43.848;25.958;2022-10-30T00:21:11;10.73;;;6.07;;
22334;SDS011;11335;43.848;25.958;2022-10-30T00:23:57;9.98;;;6.70;;
22334;SDS011;11335;43.848;25.958;2022-10-30T00:26:42;11.85;;;6.60;;
22334;SDS011;11335;43.848;25.958;2022-10-30T00:29:28;10.07;;;7.18;;
22334;SDS011;11335;43.848;25.958;2022-10-30T00:32:13;10.63;;;6.63;;
22334;SDS011;11335;43.848;25.958;2022-10-30T00:34:59;10.82;;;6.65;;
22334;SDS011;11335;43.848;25.958;2022-10-30T00:37:44;10.57;;;6.60;;
22334;SDS011;11335;43.848;25.958;2022-10-30T00:40:30;10.23;;;6.53;;
22334;SDS011;11335;43.848;25.958;2022-10-30T00:46:19;13.05;;;6.80;;
22334;SDS011;11335;43.848;25.958;2022-10-30T00:49:09;13.35;;;6.10;;
22334;SDS011;11335;43.848;25.958;2022-10-30T00:51:56;10.88;;;6.63;;
22334;SDS011;11335;43.848;25.958;2022-10-30T00:54:42;9.10;;;6.68;;
22334;SDS011;11335;43.848;25.958;2022-10-30T00:57:28;10.02;;;6.60;;
22334;SDS011;11335;43.848;25.958;2022-10-30T01:00:14;11.43;;;7.20;;
22334;SDS011;11335;43.848;25.958;2022-10-30T01:03:00;10.43;;;7.28;;
22334;SDS011;11335;43.848;25.958;2022-10-30T01:08:53;11.98;;;6.72;;
22334;SDS011;11335;43.848;25.958;2022-10-30T01:11:39;11.43;;;7.18;;
22334;SDS011;11335;43.848;25.958;2022-10-30T01:14:25;12.90;;;6.78;;
22334;SDS011;11335;43.848;25.958;2022-10-30T01:37:06;10.05;;;6.90;;
22334;SDS011;11335;43.848;25.958;2022-10-30T01:39:54;12.55;;;7.20;;
22334;SDS011;11335;43.848;25.958;2022-10-30T01:42:55;9.95;;;7.05;;
22334;SDS011;11335;43.848;25.958;2022-10-30T01:45:56;10.38;;;7.22;;
22334;SDS011;11335;43.848;25.958;2022-10-30T01:49:19;11.68;;;6.80;;
22334;SDS011;11335;43.848;25.958;2022-10-30T01:52:15;10.63;;;7.70;;
22334;SDS011;11335;43.848;25.958;2022-10-30T01:55:48;11.45;;;7.40;;
22334;SDS011;11335;43.848;25.958;2022-10-30T01:58:22;12.07;;;7.88;;
22334;SDS011;11335;43.848;25.958;2022-10-30T02:01:08;11.55;;;7.65;;
22334;SDS011;11335;43.848;25.958;2022-10-30T02:03:54;9.93;;;7.18;;
22334;SDS011;11335;43.848;25.958;2022-10-30T02:06:40;14.05;;;7.43;;
22334;SDS011;11335;43.848;25.958;2022-10-30T02:09:25;11.68;;;8.18;;
22334;SDS011;11335;43.848;25.958;2022-10-30T02:12:11;11.68;;;8.07;;
22334;SDS011;11335;43.848;25.958;2022-10-30T02:14:58;14.95;;;9.15;;
22334;SDS011;11335;43.848;25.958;2022-10-30T02:17:44;13.68;;;8.18;;
22334;SDS011;11335;43.848;25.958;2022-10-30T02:20:30;13.18;;;9.05;;
22334;SDS011;11335;43.848;25.958;2022-10-30T02:23:16;12.82;;;9.63;;
22334;SDS011;11335;43.848;25.958;2022-10-30T02:26:03;15.20;;;9.90;;
22334;SDS011;11335;43.848;25.958;2022-10-30T02:28:49;14.15;;;10.38;;
22334;SDS011;11335;43.848;25.958;2022-10-30T02:31:35;18.05;;;10.35;;
22334;SDS011;11335;43.848;25.958;2022-10-30T02:34:21;16.42;;;11.05;;
22334;SDS011;11335;43.848;25.958;2022-10-30T02:37:06;15.65;;;11.27;;
22334;SDS011;11335;43.848;25.958;2022-10-30T02:39:52;20.08;;;11.60;;
22334;SDS011;11335;43.848;25.958;2022-10-30T02:42:38;16.38;;;11.40;;
22334;SDS011;11335;43.848;25.958;2022-10-30T02:45:23;20.35;;;11.98;;
22334;SDS011;11335;43.848;25.958;2022-10-30T02:48:09;15.80;;;11.60;;
22334;SDS011;11335;43.848;25.958;2022-10-30T02:50:58;15.55;;;11.65;;
22334;SDS011;11335;43.848;25.958;2022-10-30T02:53:44;19.20;;;12.27;;
22334;SDS011;11335;43.848;25.958;2022-10-30T02:56:30;18.63;;;13.07;;
22334;SDS011;11335;43.848;25.958;2022-10-30T02:59:15;18.90;;;13.05;;
22334;SDS011;11335;43.848;25.958;2022-10-30T03:02:01;16.63;;;12.35;;
22334;SDS011;11335;43.848;25.958;2022-10-30T03:04:46;19.65;;;14.07;;
22334;SDS011;11335;43.848;25.958;2022-10-30T03:07:32;23.25;;;16.58;;
22334;SDS011;11335;43.848;25.958;2022-10-30T03:10:18;25.58;;;16.55;;
22334;SDS011;11335;43.848;25.958;2022-10-30T03:13:04;21.42;;;17.08;;
22334;SDS011;11335;43.848;25.958;2022-10-30T03:15:49;25.20;;;17.83;;
22334;SDS011;11335;43.848;25.958;2022-10-30T03:18:35;24.50;;;17.30;;
22334;SDS011;11335;43.848;25.958;2022-10-30T03:21:22;22.45;;;17.73;;
22334;SDS011;11335;43.848;25.958;2022-10-30T03:24:07;25.83;;;17.85;;
22334;SDS011;11335;43.848;25.958;2022-10-30T03:26:53;23.45;;;17.13;;
22334;SDS011;11335;43.848;25.958;2022-10-30T03:29:39;26.70;;;17.33;;
22334;SDS011;11335;43.848;25.958;2022-10-30T03:32:24;25.10;;;17.88;;
22334;SDS011;11335;43.848;25.958;2022-10-30T03:35:10;24.50;;;17.20;;
22334;SDS011;11335;43.848;25.958;2022-10-30T03:37:56;24.23;;;16.00;;
22334;SDS011;11335;43.848;25.958;2022-10-30T03:40:41;25.35;;;16.45;;
22334;SDS011;11335;43.848;25.958;2022-10-30T03:43:28;24.85;;;16.70;;
22334;SDS011;11335;43.848;25.958;2022-10-30T03:46:13;20.80;;;15.23;;
22334;SDS011;11335;43.848;25.958;2022-10-30T03:48:59;20.27;;;15.05;;
22334;SDS011;11335;43.848;25.958;2022-10-30T03:51:45;21.02;;;15.30;;
22334;SDS011;11335;43.848;25.958;2022-10-30T03:54:30;20.95;;;15.30;;
22334;SDS011;11335;43.848;25.958;2022-10-30T03:57:16;20.95;;;14.90;;
22334;SDS011;11335;43.848;25.958;2022-10-30T04:00:02;24.70;;;15.75;;
22334;SDS011;11335;43.848;25.958;2022-10-30T04:02:49;24.70;;;16.95;;
22334;SDS011;11335;43.848;25.958;2022-10-30T04:05:35;22.63;;;16.42;;
22334;SDS011;11335;43.848;25.958;2022-10-30T04:08:21;22.42;;;17.08;;
22334;SDS011;11335;43.848;25.958;2022-10-30T04:11:08;23.60;;;17.50;;
22334;SDS011;11335;43.848;25.958;2022-10-30T04:13:54;24.30;;;16.52;;
22334;SDS011;11335;43.848;25.958;2022-10-30T04:16:39;27.23;;;16.80;;
22334;SDS011;11335;43.848;25.958;2022-10-30T04:19:25;22.13;;;16.40;;
22334;SDS011;11335;43.848;25.958;2022-10-30T04:22:10;20.63;;;15.48;;
22334;SDS011;11335;43.848;25.958;2022-10-30T04:24:56;21.73;;;15.55;;
22334;SDS011;11335;43.848;25.958;2022-10-30T04:27:42;20.35;;;14.63;;
22334;SDS011;11335;43.848;25.958;2022-10-30T04:30:28;20.25;;;14.23;;
22334;SDS011;11335;43.848;25.958;2022-10-30T04:33:18;22.23;;;15.45;;
22334;SDS011;11335;43.848;25.958;2022-10-30T04:36:03;21.25;;;14.82;;
22334;SDS011;11335;43.848;25.958;2022-10-30T04:38:50;23.70;;;14.20;;
22334;SDS011;11335;43.848;25.958;2022-10-30T04:41:35;20.77;;;14.40;;
22334;SDS011;11335;43.848;25.958;2022-10-30T04:44:21;18.38;;;13.68;;
22334;SDS011;11335;43.848;25.958;2022-10-30T04:47:06;19.35;;;13.73;;
22334;SDS011;11335;43.848;25.958;2022-10-30T04:49:52;18.38;;;13.13;;
22334;SDS011;11335;43.848;25.958;2022-10-30T04:52:38;19.42;;;14.10;;
22334;SDS011;11335;43.848;25.958;2022-10-30T04:55:24;22.90;;;14.30;;
22334;SDS011;11335;43.848;25.958;2022-10-30T04:58:10;20.48;;;13.68;;
22334;SDS011;11335;43.848;25.958;2022-10-30T05:01:00;19.35;;;13.30;;
22334;SDS011;11335;43.848;25.958;2022-10-30T05:03:45;19.05;;;12.63;;
22334;SDS011;11335;43.848;25.958;2022-10-30T05:06:31;18.05;;;12.75;;
22334;SDS011;11335;43.848;25.958;2022-10-30T05:09:17;17.45;;;12.45;;
22334;SDS011;11335;43.848;25.958;2022-10-30T05:12:03;19.17;;;12.25;;
22334;SDS011;11335;43.848;25.958;2022-10-30T05:14:48;20.48;;;12.65;;
22334;SDS011;11335;43.848;25.958;2022-10-30T05:17:34;21.35;;;13.30;;
22334;SDS011;11335;43.848;25.958;2022-10-30T05:20:19;21.02;;;13.25;;
22334;SDS011;11335;43.848;25.958;2022-10-30T05:23:05;21.38;;;12.93;;
22334;SDS011;11335;43.848;25.958;2022-10-30T05:25:51;18.85;;;12.50;;
22334;SDS011;11335;43.848;25.958;2022-10-30T05:28:36;17.00;;;11.95;;
22334;SDS011;11335;43.848;25.958;2022-10-30T05:31:22;18.63;;;12.35;;
22334;SDS011;11335;43.848;25.958;2022-10-30T05:34:07;18.33;;;12.10;;
22334;SDS011;11335;43.848;25.958;2022-10-30T05:36:53;18.20;;;12.05;;
22334;SDS011;11335;43.848;25.958;2022-10-30T05:39:39;17.02;;;11.10;;
22334;SDS011;11335;43.848;25.958;2022-10-30T05:42:24;16.27;;;10.88;;
22334;SDS011;11335;43.848;25.958;2022-10-30T05:45:10;17.27;;;11.07;;
22334;SDS011;11335;43.848;25.958;2022-10-30T05:47:59;16.33;;;10.90;;
22334;SDS011;11335;43.848;25.958;2022-10-30T05:50:45;16.55;;;11.27;;
22334;SDS011;11335;43.848;25.958;2022-10-30T05:53:31;15.18;;;10.98;;
22334;SDS011;11335;43.848;25.958;2022-10-30T05:56:16;13.48;;;10.65;;
22334;SDS011;11335;43.848;25.958;2022-10-30T05:59:02;15.32;;;10.43;;
22334;SDS011;11335;43.848;25.958;2022-10-30T06:01:47;12.65;;;9.75;;
22334;SDS011;11335;43.848;25.958;2022-10-30T06:04:33;17.60;;;10.48;;
22334;SDS011;11335;43.848;25.958;2022-10-30T06:07:19;13.95;;;10.07;;
22334;SDS011;11335;43.848;25.958;2022-10-30T06:10:04;17.35;;;10.70;;
22334;SDS011;11335;43.848;25.958;2022-10-30T06:12:53;16.88;;;10.43;;
22334;SDS011;11335;43.848;25.958;2022-10-30T06:15:39;18.20;;;10.00;;
22334;SDS011;11335;43.848;25.958;2022-10-30T06:18:24;15.55;;;9.77;;
22334;SDS011;11335;43.848;25.958;2022-10-30T06:21:10;11.80;;;9.48;;
22334;SDS011;11335;43.848;25.958;2022-10-30T06:23:56;11.43;;;8.65;;
22334;SDS011;11335;43.848;25.958;2022-10-30T06:26:43;14.98;;;9.25;;
22334;SDS011;11335;43.848;25.958;2022-10-30T06:29:28;15.02;;;9.18;;
22334;SDS011;11335;43.848;25.958;2022-10-30T06:32:14;13.30;;;9.15;;
22334;SDS011;11335;43.848;25.958;2022-10-30T06:34:59;14.65;;;9.63;;
22334;SDS011;11335;43.848;25.958;2022-10-30T06:37:46;15.88;;;9.13;;
22334;SDS011;11335;43.848;25.958;2022-10-30T06:40:32;16.88;;;9.02;;
22334;SDS011;11335;43.848;25.958;2022-10-30T06:43:17;14.45;;;9.15;;
22334;SDS011;11335;43.848;25.958;2022-10-30T06:46:03;18.52;;;10.07;;
22334;SDS011;11335;43.848;25.958;2022-10-30T06:48:48;17.83;;;10.55;;
22334;SDS011;11335;43.848;25.958;2022-10-30T06:51:34;14.88;;;9.85;;
22334;SDS011;11335;43.848;25.958;2022-10-30T06:54:20;13.65;;;10.57;;
22334;SDS011;11335;43.848;25.958;2022-10-30T06:57:05;16.25;;;10.55;;
22334;SDS011;11335;43.848;25.958;2022-10-30T06:59:51;12.68;;;9.43;;
22334;SDS011;11335;43.848;25.958;2022-10-30T07:02:36;14.02;;;9.32;;
22334;SDS011;11335;43.848;25.958;2022-10-30T07:05:22;17.13;;;9.40;;
22334;SDS011;11335;43.848;25.958;2022-10-30T07:08:07;14.18;;;9.40;;
22334;SDS011;11335;43.848;25.958;2022-10-30T07:10:55;13.20;;;9.23;;
22334;SDS011;11335;43.848;25.958;2022-10-30T07:13:40;11.80;;;8.70;;
22334;SDS011;11335;43.848;25.958;2022-10-30T07:16:26;14.20;;;9.13;;
22334;SDS011;11335;43.848;25.958;2022-10-30T07:19:12;14.23;;;8.88;;
22334;SDS011;11335;43.848;25.958;2022-10-30T07:21:57;10.65;;;7.97;;
22334;SDS011;11335;43.848;25.958;2022-10-30T07:24:43;13.13;;;7.93;;
22334;SDS011;11335;43.848;25.958;2022-10-30T07:27:28;10.80;;;7.13;;
22334;SDS011;11335;43.848;25.958;2022-10-30T07:30:15;11.23;;;7.75;;
22334;SDS011;11335;43.848;25.958;2022-10-30T07:33:01;9.30;;;7.03;;
22334;SDS011;11335;43.848;25.958;2022-10-30T07:35:47;12.57;;;7.55;;
22334;SDS011;11335;43.848;25.958;2022-10-30T07:38:33;13.98;;;7.32;;
22334;SDS011;11335;43.848;25.958;2022-10-30T07:41:19;10.82;;;7.05;;
22334;SDS011;11335;43.848;25.958;2022-10-30T07:44:05;11.50;;;7.53;;
22334;SDS011;11335;43.848;25.958;2022-10-30T07:46:50;12.02;;;7.60;;
22334;SDS011;11335;43.848;25.958;2022-10-30T07:49:36;10.30;;;7.13;;
22334;SDS011;11335;43.848;25.958;2022-10-30T07:52:22;14.52;;;7.47;;
22334;SDS011;11335;43.848;25.958;2022-10-30T07:55:08;11.70;;;7.88;;
22334;SDS011;11335;43.848;25.958;2022-10-30T07:57:53;11.75;;;7.93;;
22334;SDS011;11335;43.848;25.958;2022-10-30T08:00:42;10.68;;;7.85;;
22334;SDS011;11335;43.848;25.958;2022-10-30T08:03:28;13.18;;;7.65;;
22334;SDS011;11335;43.848;25.958;2022-10-30T08:06:13;12.57;;;8.93;;
22334;SDS011;11335;43.848;25.958;2022-10-30T08:08:59;12.82;;;8.88;;
22334;SDS011;11335;43.848;25.958;2022-10-30T08:11:45;14.70;;;9.85;;
22334;SDS011;11335;43.848;25.958;2022-10-30T08:14:30;14.43;;;9.70;;
22334;SDS011;11335;43.848;25.958;2022-10-30T08:17:16;12.20;;;9.57;;
22334;SDS011;11335;43.848;25.958;2022-10-30T08:20:01;14.38;;;9.85;;
22334;SDS011;11335;43.848;25.958;2022-10-30T08:22:48;15.60;;;10.25;;
22334;SDS011;11335;43.848;25.958;2022-10-30T08:25:33;15.75;;;10.30;;
22334;SDS011;11335;43.848;25.958;2022-10-30T08:28:19;16.23;;;9.95;;
22334;SDS011;11335;43.848;25.958;2022-10-30T08:31:05;14.43;;;9.63;;
22334;SDS011;11335;43.848;25.958;2022-10-30T08:33:50;14.95;;;9.25;;
22334;SDS011;11335;43.848;25.958;2022-10-30T08:36:36;14.30;;;9.15;;
22334;SDS011;11335;43.848;25.958;2022-10-30T08:39:21;16.98;;;9.73;;
22334;SDS011;11335;43.848;25.958;2022-10-30T08:42:07;15.30;;;8.73;;
22334;SDS011;11335;43.848;25.958;2022-10-30T08:44:52;17.13;;;8.70;;
22334;SDS011;11335;43.848;25.958;2022-10-30T08:47:38;13.80;;;9.10;;
22334;SDS011;11335;43.848;25.958;2022-10-30T08:50:24;16.75;;;8.95;;
22334;SDS011;11335;43.848;25.958;2022-10-30T08:53:10;12.25;;;9.10;;
22334;SDS011;11335;43.848;25.958;2022-10-30T08:55:56;13.27;;;8.90;;
22334;SDS011;11335;43.848;25.958;2022-10-30T08:58:42;14.05;;;8.45;;
22334;SDS011;11335;43.848;25.958;2022-10-30T09:01:27;13.90;;;7.97;;
22334;SDS011;11335;43.848;25.958;2022-10-30T09:04:13;13.88;;;8.18;;
22334;SDS011;11335;43.848;25.958;2022-10-30T09:07:02;11.27;;;8.40;;
22334;SDS011;11335;43.848;25.958;2022-10-30T09:09:47;11.38;;;8.25;;
22334;SDS011;11335;43.848;25.958;2022-10-30T09:12:33;10.85;;;7.85;;
22334;SDS011;11335;43.848;25.958;2022-10-30T09:15:18;11.60;;;7.70;;
22334;SDS011;11335;43.848;25.958;2022-10-30T09:18:04;10.85;;;8.25;;
22334;SDS011;11335;43.848;25.958;2022-10-30T09:20:50;12.23;;;8.02;;
22334;SDS011;11335;43.848;25.958;2022-10-30T09:23:35;13.93;;;7.80;;
22334;SDS011;11335;43.848;25.958;2022-10-30T09:26:21;10.73;;;7.95;;
22334;SDS011;11335;43.848;25.958;2022-10-30T09:29:07;20.05;;;8.43;;
22334;SDS011;11335;43.848;25.958;2022-10-30T09:31:52;9.93;;;7.90;;
22334;SDS011;11335;43.848;25.958;2022-10-30T09:34:38;10.85;;;8.07;;
22334;SDS011;11335;43.848;25.958;2022-10-30T09:37:23;22.38;;;9.45;;
22334;SDS011;11335;43.848;25.958;2022-10-30T09:40:16;13.02;;;9.55;;
22334;SDS011;11335;43.848;25.958;2022-10-30T09:43:09;12.82;;;8.82;;
22334;SDS011;11335;43.848;25.958;2022-10-30T09:46:05;13.73;;;9.38;;
22334;SDS011;11335;43.848;25.958;2022-10-30T09:48:57;18.00;;;12.10;;
22334;SDS011;11335;43.848;25.958;2022-10-30T10:00:32;12.00;;;8.70;;
22334;SDS011;11335;43.848;25.958;2022-10-30T10:03:22;12.82;;;8.93;;
22334;SDS011;11335;43.848;25.958;2022-10-30T10:06:12;12.60;;;8.35;;
22334;SDS011;11335;43.848;25.958;2022-10-30T10:09:01;11.88;;;7.93;;
22334;SDS011;11335;43.848;25.958;2022-10-30T10:11:52;12.73;;;8.38;;
22334;SDS011;11335;43.848;25.958;2022-10-30T10:14:39;12.52;;;8.30;;
22334;SDS011;11335;43.848;25.958;2022-10-30T10:17:33;11.13;;;7.43;;
22334;SDS011;11335;43.848;25.958;2022-10-30T10:20:27;10.85;;;7.63;;
22334;SDS011;11335;43.848;25.958;2022-10-30T10:23:17;12.07;;;7.95;;
22334;SDS011;11335;43.848;25.958;2022-10-30T10:26:09;14.85;;;8.52;;
22334;SDS011;11335;43.848;25.958;2022-10-30T10:34:44;12.75;;;7.75;;
22334;SDS011;11335;43.848;25.958;2022-10-30T10:51:40;11.45;;;7.25;;
22334;SDS011;11335;43.848;25.958;2022-10-30T10:54:28;10.18;;;6.97;;
22334;SDS011;11335;43.848;25.958;2022-10-30T10:57:18;10.43;;;7.10;;
22334;SDS011;11335;43.848;25.958;2022-10-30T11:00:07;10.45;;;7.10;;
22334;SDS011;11335;43.848;25.958;2022-10-30T11:03:13;8.88;;;7.20;;
22334;SDS011;11335;43.848;25.958;2022-10-30T11:09:14;10.82;;;7.10;;
22334;SDS011;11335;43.848;25.958;2022-10-30T11:12:01;12.73;;;6.30;;
22334;SDS011;11335;43.848;25.958;2022-10-30T11:14:46;11.07;;;6.53;;
22334;SDS011;11335;43.848;25.958;2022-10-30T11:17:39;8.15;;;6.53;;
22334;SDS011;11335;43.848;25.958;2022-10-30T11:20:50;11.65;;;7.28;;
22334;SDS011;11335;43.848;25.958;2022-10-30T11:23:39;9.70;;;6.38;;
22334;SDS011;11335;43.848;25.958;2022-10-30T11:26:30;8.82;;;6.65;;
22334;SDS011;11335;43.848;25.958;2022-10-30T11:29:17;8.65;;;6.32;;
22334;SDS011;11335;43.848;25.958;2022-10-30T11:32:05;9.15;;;7.13;;
22334;SDS011;11335;43.848;25.958;2022-10-30T11:37:49;8.77;;;6.05;;
22334;SDS011;11335;43.848;25.958;2022-10-30T11:40:35;9.38;;;7.00;;
22334;SDS011;11335;43.848;25.958;2022-10-30T11:43:21;8.65;;;5.90;;
22334;SDS011;11335;43.848;25.958;2022-10-30T11:46:09;13.27;;;6.15;;
22334;SDS011;11335;43.848;25.958;2022-10-30T11:48:56;8.45;;;5.95;;
22334;SDS011;11335;43.848;25.958;2022-10-30T11:51:41;9.90;;;6.28;;
22334;SDS011;11335;43.848;25.958;2022-10-30T11:54:34;11.85;;;7.00;;
22334;SDS011;11335;43.848;25.958;2022-10-30T11:57:21;10.07;;;6.55;;
22334;SDS011;11335;43.848;25.958;2022-10-30T12:00:13;8.70;;;5.88;;
22334;SDS011;11335;43.848;25.958;2022-10-30T12:02:59;10.68;;;5.75;;
22334;SDS011;11335;43.848;25.958;2022-10-30T12:05:45;8.13;;;5.70;;
22334;SDS011;11335;43.848;25.958;2022-10-30T12:08:31;11.95;;;5.70;;
22334;SDS011;11335;43.848;25.958;2022-10-30T12:11:16;10.65;;;6.28;;
22334;SDS011;11335;43.848;25.958;2022-10-30T12:14:02;9.10;;;5.88;;
22334;SDS011;11335;43.848;25.958;2022-10-30T12:16:51;8.90;;;5.68;;
22334;SDS011;11335;43.848;25.958;2022-10-30T12:19:55;9.00;;;5.68;;
22334;SDS011;11335;43.848;25.958;2022-10-30T12:22:41;8.82;;;6.10;;
22334;SDS011;11335;43.848;25.958;2022-10-30T12:25:28;6.03;;;5.28;;
22334;SDS011;11335;43.848;25.958;2022-10-30T12:28:27;7.78;;;6.00;;
22334;SDS011;11335;43.848;25.958;2022-10-30T12:31:15;9.90;;;6.47;;
22334;SDS011;11335;43.848;25.958;2022-10-30T12:36:49;10.32;;;6.00;;
22334;SDS011;11335;43.848;25.958;2022-10-30T12:39:49;7.72;;;5.40;;
22334;SDS011;11335;43.848;25.958;2022-10-30T12:42:49;8.50;;;5.68;;
22334;SDS011;11335;43.848;25.958;2022-10-30T12:45:40;10.23;;;5.80;;
22334;SDS011;11335;43.848;25.958;2022-10-30T12:54:04;10.07;;;6.15;;
22334;SDS011;11335;43.848;25.958;2022-10-30T12:56:55;7.32;;;5.93;;
22334;SDS011;11335;43.848;25.958;2022-10-30T13:05:41;10.23;;;5.90;;
22334;SDS011;11335;43.848;25.958;2022-10-30T13:11:20;9.20;;;5.65;;
22334;SDS011;11335;43.848;25.958;2022-10-30T13:14:54;7.80;;;5.15;;
22334;SDS011;11335;43.848;25.958;2022-10-30T13:17:14;6.85;;;5.32;;
22334;SDS011;11335;43.848;25.958;2022-10-30T13:19:59;9.00;;;5.22;;
22334;SDS011;11335;43.848;25.958;2022-10-30T13:22:50;7.07;;;5.07;;
22334;SDS011;11335;43.848;25.958;2022-10-30T13:29:06;7.10;;;5.03;;
22334;SDS011;11335;43.848;25.958;2022-10-30T13:42:51;11.77;;;5.32;;
22334;SDS011;11335;43.848;25.958;2022-10-30T13:45:41;9.38;;;5.65;;
22334;SDS011;11335;43.848;25.958;2022-10-30T13:51:48;16.52;;;5.70;;
22334;SDS011;11335;43.848;25.958;2022-10-30T13:54:36;9.43;;;6.38;;
22334;SDS011;11335;43.848;25.958;2022-10-30T13:57:25;9.23;;;5.72;;
22334;SDS011;11335;43.848;25.958;2022-10-30T14:00:19;8.82;;;5.93;;
22334;SDS011;11335;43.848;25.958;2022-10-30T14:03:11;9.85;;;5.68;;
22334;SDS011;11335;43.848;25.958;2022-10-30T14:08:49;9.77;;;6.55;;
22334;SDS011;11335;43.848;25.958;2022-10-30T14:11:37;8.18;;;5.90;;
22334;SDS011;11335;43.848;25.958;2022-10-30T14:14:29;8.55;;;5.68;;
22334;SDS011;11335;43.848;25.958;2022-10-30T14:17:15;6.88;;;4.90;;
22334;SDS011;11335;43.848;25.958;2022-10-30T14:28:50;10.23;;;5.75;;
22334;SDS011;11335;43.848;25.958;2022-10-30T14:31:39;7.93;;;5.60;;
22334;SDS011;11335;43.848;25.958;2022-10-30T14:40:37;7.78;;;6.07;;
22334;SDS011;11335;43.848;25.958;2022-10-30T14:43:34;8.73;;;6.20;;
22334;SDS011;11335;43.848;25.958;2022-10-30T14:49:26;9.50;;;5.80;;
22334;SDS011;11335;43.848;25.958;2022-10-30T14:52:33;8.90;;;6.25;;
22334;SDS011;11335;43.848;25.958;2022-10-30T14:58:25;12.98;;;6.57;;
22334;SDS011;11335;43.848;25.958;2022-10-30T15:01:30;13.43;;;6.60;;
22334;SDS011;11335;43.848;25.958;2022-10-30T15:04:18;13.30;;;6.55;;
22334;SDS011;11335;43.848;25.958;2022-10-30T15:07:42;11.52;;;6.82;;
22334;SDS011;11335;43.848;25.958;2022-10-30T15:10:32;20.98;;;7.90;;
22334;SDS011;11335;43.848;25.958;2022-10-30T15:13:19;16.33;;;8.25;;
22334;SDS011;11335;43.848;25.958;2022-10-30T15:16:06;14.35;;;7.93;;
22334;SDS011;11335;43.848;25.958;2022-10-30T15:18:56;16.85;;;8.38;;
22334;SDS011;11335;43.848;25.958;2022-10-30T15:21:44;18.33;;;8.35;;
22334;SDS011;11335;43.848;25.958;2022-10-30T15:24:31;19.67;;;9.40;;
22334;SDS011;11335;43.848;25.958;2022-10-30T15:27:18;17.27;;;9.85;;
22334;SDS011;11335;43.848;25.958;2022-10-30T15:30:13;16.10;;;9.80;;
22334;SDS011;11335;43.848;25.958;2022-10-30T15:32:59;22.33;;;9.60;;
22334;SDS011;11335;43.848;25.958;2022-10-30T15:35:45;20.40;;;9.85;;
22334;SDS011;11335;43.848;25.958;2022-10-30T15:38:31;25.65;;;11.35;;
22334;SDS011;11335;43.848;25.958;2022-10-30T15:41:19;28.52;;;11.35;;
22334;SDS011;11335;43.848;25.958;2022-10-30T15:44:05;33.53;;;14.13;;
22334;SDS011;11335;43.848;25.958;2022-10-30T15:46:51;33.22;;;14.20;;
22334;SDS011;11335;43.848;25.958;2022-10-30T15:49:38;31.40;;;13.15;;
22334;SDS011;11335;43.848;25.958;2022-10-30T15:52:28;32.00;;;13.15;;
22334;SDS011;11335;43.848;25.958;2022-10-30T15:55:15;43.65;;;16.05;;
22334;SDS011;11335;43.848;25.958;2022-10-30T15:58:02;41.72;;;14.90;;
22334;SDS011;11335;43.848;25.958;2022-10-30T16:00:58;37.50;;;15.65;;
22334;SDS011;11335;43.848;25.958;2022-10-30T16:03:49;47.95;;;16.27;;
22334;SDS011;11335;43.848;25.958;2022-10-30T16:06:35;45.05;;;17.42;;
22334;SDS011;11335;43.848;25.958;2022-10-30T16:09:21;47.17;;;17.50;;
22334;SDS011;11335;43.848;25.958;2022-10-30T16:12:08;46.78;;;18.17;;
22334;SDS011;11335;43.848;25.958;2022-10-30T16:14:55;47.33;;;17.92;;
22334;SDS011;11335;43.848;25.958;2022-10-30T16:17:41;69.15;;;20.48;;
22334;SDS011;11335;43.848;25.958;2022-10-30T16:20:26;55.08;;;20.40;;
22334;SDS011;11335;43.848;25.958;2022-10-30T16:23:12;51.90;;;18.50;;
22334;SDS011;11335;43.848;25.958;2022-10-30T16:25:58;40.88;;;17.90;;
22334;SDS011;11335;43.848;25.958;2022-10-30T16:28:45;54.70;;;18.60;;
22334;SDS011;11335;43.848;25.958;2022-10-30T16:31:32;47.42;;;19.55;;
22334;SDS011;11335;43.848;25.958;2022-10-30T16:34:20;46.15;;;19.73;;
22334;SDS011;11335;43.848;25.958;2022-10-30T16:37:10;60.75;;;22.67;;
22334;SDS011;11335;43.848;25.958;2022-10-30T16:39:57;46.47;;;22.63;;
22334;SDS011;11335;43.848;25.958;2022-10-30T16:42:45;58.45;;;21.77;;
22334;SDS011;11335;43.848;25.958;2022-10-30T16:48:19;54.35;;;24.75;;
22334;SDS011;11335;43.848;25.958;2022-10-30T16:51:15;60.40;;;27.23;;
22334;SDS011;11335;43.848;25.958;2022-10-30T16:54:01;61.72;;;26.63;;
22334;SDS011;11335;43.848;25.958;2022-10-30T16:56:47;63.55;;;26.50;;
22334;SDS011;11335;43.848;25.958;2022-10-30T16:59:35;60.50;;;26.75;;
22334;SDS011;11335;43.848;25.958;2022-10-30T17:02:22;55.88;;;27.63;;
22334;SDS011;11335;43.848;25.958;2022-10-30T17:05:18;65.03;;;28.35;;
22334;SDS011;11335;43.848;25.958;2022-10-30T17:08:05;59.38;;;30.00;;
22334;SDS011;11335;43.848;25.958;2022-10-30T17:13:39;59.22;;;29.15;;
22334;SDS011;11335;43.848;25.958;2022-10-30T17:22:16;62.38;;;29.58;;
22334;SDS011;11335;43.848;25.958;2022-10-30T17:25:13;65.03;;;29.50;;
22334;SDS011;11335;43.848;25.958;2022-10-30T17:28:02;79.45;;;30.50;;
22334;SDS011;11335;43.848;25.958;2022-10-30T17:30:47;63.47;;;30.50;;
22334;SDS011;11335;43.848;25.958;2022-10-30T17:33:36;65.13;;;30.88;;
22334;SDS011;11335;43.848;25.958;2022-10-30T17:36:22;54.42;;;29.05;;
22334;SDS011;11335;43.848;25.958;2022-10-30T17:39:07;61.80;;;30.17;;
22334;SDS011;11335;43.848;25.958;2022-10-30T17:41:55;61.53;;;29.63;;
22334;SDS011;11335;43.848;25.958;2022-10-30T17:44:41;62.85;;;28.42;;
22334;SDS011;11335;43.848;25.958;2022-10-30T17:47:26;55.00;;;27.95;;
22334;SDS011;11335;43.848;25.958;2022-10-30T17:50:12;60.10;;;28.50;;
22334;SDS011;11335;43.848;25.958;2022-10-30T17:52:58;48.53;;;24.88;;
22334;SDS011;11335;43.848;25.958;2022-10-30T17:55:44;50.03;;;25.30;;
22334;SDS011;11335;43.848;25.958;2022-10-30T17:58:31;41.38;;;24.58;;
22334;SDS011;11335;43.848;25.958;2022-10-30T18:01:19;53.15;;;26.15;;
22334;SDS011;11335;43.848;25.958;2022-10-30T18:04:11;53.78;;;26.23;;
22334;SDS011;11335;43.848;25.958;2022-10-30T18:06:57;46.03;;;26.52;;
22334;SDS011;11335;43.848;25.958;2022-10-30T18:09:42;50.35;;;27.05;;
22334;SDS011;11335;43.848;25.958;2022-10-30T18:12:28;51.03;;;26.48;;
22334;SDS011;11335;43.848;25.958;2022-10-30T18:15:21;52.47;;;27.60;;
22334;SDS011;11335;43.848;25.958;2022-10-30T18:18:08;56.33;;;27.75;;
22334;SDS011;11335;43.848;25.958;2022-10-30T18:20:53;48.92;;;27.30;;
22334;SDS011;11335;43.848;25.958;2022-10-30T18:23:39;48.53;;;28.10;;
22334;SDS011;11335;43.848;25.958;2022-10-30T18:26:25;42.88;;;26.17;;
22334;SDS011;11335;43.848;25.958;2022-10-30T18:29:11;49.53;;;27.25;;